Time;durP1;ratioP1;P1;durP2;ratioP2;P2;SDS_P1;SDS_P2;PMS_P1;PMS_P2;Temp;Humidity;BMP_temperature;BMP_pressure;BME280_temperature;BME280_humidity;BME280_pressure;Samples;Min_cycle;Max_cycle;Signal;HPM_P1;HPM_P2
2023/08/17 00:01:49;;;;;;;;;;;17.30;99.90;;;;;;5135814;27;19954;-41
2023/08/17 00:04:15;;;;;;;;;;;17.40;99.90;;;;;;5135841;27;19918;-42
2023/08/17 00:06:40;;;;;;;;;;;17.40;99.90;;;;;;5135926;27;19965;-43
2023/08/17 00:09:06;;;;;;;;;;;17.40;99.90;;;;;;5135899;27;20358;-43
2023/08/17 00:11:32;;;;;;;;;;;17.40;99.90;;;;;;5135732;27;19918;-43
2023/08/17 00:13:58;;;;;;;;;;;17.40;99.90;;;;;;5135056;27;19908;-41
2023/08/17 00:16:23;;;;;;;;;;;17.40;99.90;;;;;;5124749;27;19919;-44
2023/08/17 00:18:49;;;;;;;;;;;17.30;99.90;;;;;;5115128;28;19914;-44
2023/08/17 00:21:14;;;;;;;;;;;17.40;99.90;;;;;;5115042;28;20268;-43
2023/08/17 00:23:40;;;;;;;;;;;17.30;99.90;;;;;;5125151;27;19942;-43
2023/08/17 00:26:06;;;;;;;;;;;17.30;99.90;;;;;;5134495;27;20292;-41
2023/08/17 00:28:31;;;;;;;;;;;17.30;99.90;;;;;;5135396;27;19911;-43
2023/08/17 00:30:57;;;;;;;;;;;17.40;99.90;;;;;;5135301;27;19907;-44
2023/08/17 00:33:22;;;;;;;;;;;17.30;99.90;;;;;;5135266;27;19907;-41
2023/08/17 00:35:48;;;;;;;;;;;17.30;99.90;;;;;;5133151;27;19919;-43
2023/08/17 00:38:13;;;;;;;;;;;17.30;99.90;;;;;;5114730;28;20331;-42
2023/08/17 00:40:39;;;;;;;;;;;17.30;99.90;;;;;;5114623;28;19918;-43
2023/08/17 00:43:05;;;;;;;;;;;17.30;99.90;;;;;;5114589;28;20415;-42
2023/08/17 00:45:31;;;;;;;;;;;17.20;99.90;;;;;;5131716;27;19972;-41
2023/08/17 00:47:57;;;;;;;;;;;17.20;99.90;;;;;;5155832;27;20365;-43
2023/08/17 00:50:24;;;;;;;;;;;17.20;99.90;;;;;;5155658;27;19937;-41
2023/08/17 00:52:50;;;;;;;;;;;17.20;99.90;;;;;;5155985;27;19954;-41
2023/08/17 00:55:16;;;;;;;;;;;17.20;99.90;;;;;;5155558;27;20357;-41
2023/08/17 00:57:41;;;;;;;;;;;17.10;99.90;;;;;;5155619;27;19997;-43
2023/08/17 01:00:08;;;;;;;;;;;17.10;99.90;;;;;;5142477;27;19911;-43
2023/08/17 01:02:34;;;;;;;;;;;17.10;99.90;;;;;;5134694;27;20001;-42
2023/08/17 01:05:00;;;;;;;;;;;17.00;99.90;;;;;;5120593;27;19958;-42
2023/08/17 01:07:25;;;;;;;;;;;17.00;99.90;;;;;;5114085;28;19907;-42
2023/08/17 01:09:51;;;;;;;;;;;17.00;99.90;;;;;;5114088;28;19908;-40
2023/08/17 01:12:27;;;;;;;;;;;17.00;99.90;;;;;;5114008;28;19945;-41
2023/08/17 01:14:59;;;;;;;;;;;17.00;99.90;;;;;;5117347;27;19919;-43
2023/08/17 01:17:44;;;;;;;;;;;17.00;99.90;;;;;;5151228;27;19916;-42
2023/08/17 01:20:12;;;;;;;;;;;17.00;99.90;;;;;;5119498;27;19912;-41
2023/08/17 01:22:39;;;;;;;;;;;17.00;99.90;;;;;;5134253;27;19912;-43
2023/08/17 01:25:05;;;;;;;;;;;17.00;99.90;;;;;;5133559;27;19914;-42
2023/08/17 01:27:40;;;;;;;;;;;16.90;99.90;;;;;;5134288;27;19990;-43
2023/08/17 01:30:07;;;;;;;;;;;17.00;99.90;;;;;;5134355;27;19911;-43
2023/08/17 01:32:53;;;;;;;;;;;16.90;99.90;;;;;;5134139;27;20075;-44
2023/08/17 01:35:33;;;;;;;;;;;16.90;99.90;;;;;;5133366;27;20421;-43
2023/08/17 01:38:03;;;;;;;;;;;16.90;99.90;;;;;;5134246;27;19943;-44
2023/08/17 01:40:32;;;;;;;;;;;16.90;99.90;;;;;;5135119;27;20031;-46
2023/08/17 01:42:57;;;;;;;;;;;16.90;99.90;;;;;;5134007;27;19961;-43
2023/08/17 01:45:23;;;;;;;;;;;16.90;99.90;;;;;;5133748;27;19920;-44
2023/08/17 01:47:48;;;;;;;;;;;16.90;99.90;;;;;;5133948;27;20350;-41
2023/08/17 01:50:14;;;;;;;;;;;16.90;99.90;;;;;;5133771;27;19907;-43
2023/08/17 01:52:39;;;;;;;;;;;16.90;99.90;;;;;;5125443;27;20007;-41
2023/08/17 01:55:05;;;;;;;;;;;16.90;99.90;;;;;;5133903;27;20255;-43
2023/08/17 01:57:31;;;;;;;;;;;17.00;99.90;;;;;;5133801;27;20274;-45
2023/08/17 01:59:56;;;;;;;;;;;16.90;99.90;;;;;;5133937;27;19931;-42
2023/08/17 02:02:22;;;;;;;;;;;16.90;99.90;;;;;;5133762;27;19907;-43
2023/08/17 02:04:47;;;;;;;;;;;17.00;99.90;;;;;;5133817;27;20443;-43
2023/08/17 02:07:13;;;;;;;;;;;17.00;99.90;;;;;;5133836;28;19914;-41
2023/08/17 02:09:38;;;;;;;;;;;17.00;99.90;;;;;;5133681;28;20370;-42
2023/08/17 02:12:04;;;;;;;;;;;17.00;99.90;;;;;;5133846;28;20141;-42
2023/08/17 02:14:30;;;;;;;;;;;17.00;99.90;;;;;;5133446;27;20320;-43
2023/08/17 02:16:55;;;;;;;;;;;17.00;99.90;;;;;;5133634;28;19908;-42
2023/08/17 02:19:20;;;;;;;;;;;17.00;99.90;;;;;;5133295;28;19907;-42
2023/08/17 02:21:47;;;;;;;;;;;17.00;99.90;;;;;;5133618;28;19946;-41
2023/08/17 02:24:12;;;;;;;;;;;17.00;99.90;;;;;;5133738;28;20374;-43
2023/08/17 02:26:39;;;;;;;;;;;17.00;99.90;;;;;;5133520;28;20389;-42
2023/08/17 02:29:05;;;;;;;;;;;17.00;99.90;;;;;;5133648;28;19911;-43
2023/08/17 02:31:30;;;;;;;;;;;17.00;99.90;;;;;;5133485;28;20358;-43
2023/08/17 02:34:00;;;;;;;;;;;17.00;99.90;;;;;;5133499;28;19915;-42
2023/08/17 02:36:26;;;;;;;;;;;17.00;99.90;;;;;;5135523;27;19966;-43
2023/08/17 02:38:52;;;;;;;;;;;17.00;99.90;;;;;;5153440;27;19994;-43
2023/08/17 02:41:17;;;;;;;;;;;17.00;99.90;;;;;;5158314;27;19911;-41
2023/08/17 02:43:43;;;;;;;;;;;17.00;99.90;;;;;;5157948;27;19919;-42
2023/08/17 02:46:09;;;;;;;;;;;16.90;99.90;;;;;;5158276;27;20372;-43
2023/08/17 02:48:34;;;;;;;;;;;16.90;99.90;;;;;;5158078;27;19917;-41
2023/08/17 02:51:00;;;;;;;;;;;16.90;99.90;;;;;;5158194;27;20389;-42
2023/08/17 02:53:25;;;;;;;;;;;16.90;99.90;;;;;;5129211;27;19912;-43
2023/08/17 02:55:51;;;;;;;;;;;16.80;99.90;;;;;;5116647;28;19916;-43
2023/08/17 02:58:16;;;;;;;;;;;16.80;99.90;;;;;;5116598;28;19922;-42
2023/08/17 03:00:42;;;;;;;;;;;16.80;99.90;;;;;;5116636;28;20275;-43
2023/08/17 03:03:07;;;;;;;;;;;16.80;99.90;;;;;;5121122;27;20044;-43
2023/08/17 03:05:33;;;;;;;;;;;16.70;99.90;;;;;;5137037;27;19907;-42
2023/08/17 03:07:58;;;;;;;;;;;16.70;99.90;;;;;;5137109;27;19994;-42
2023/08/17 03:10:24;;;;;;;;;;;16.70;99.90;;;;;;5136996;27;19915;-41
2023/08/17 03:12:50;;;;;;;;;;;16.70;99.90;;;;;;5136887;27;20432;-42
2023/08/17 03:15:16;;;;;;;;;;;16.70;99.90;;;;;;5136822;27;20010;-42
2023/08/17 03:17:41;;;;;;;;;;;16.70;99.90;;;;;;5127871;27;19919;-42
2023/08/17 03:20:07;;;;;;;;;;;16.70;99.90;;;;;;5116257;28;20366;-42
2023/08/17 03:22:33;;;;;;;;;;;16.70;99.90;;;;;;5116206;28;19995;-45
2023/08/17 03:24:59;;;;;;;;;;;16.70;99.90;;;;;;5116231;28;19912;-41
2023/08/17 03:27:24;;;;;;;;;;;16.70;99.90;;;;;;5116103;28;19908;-42
2023/08/17 03:29:50;;;;;;;;;;;16.70;99.90;;;;;;5116129;28;19912;-42
2023/08/17 03:32:16;;;;;;;;;;;16.80;99.90;;;;;;5153906;27;20006;-42
2023/08/17 03:34:41;;;;;;;;;;;16.80;99.90;;;;;;5157258;27;20013;-43
2023/08/17 03:37:07;;;;;;;;;;;16.80;99.90;;;;;;5157200;27;19911;-43
2023/08/17 03:39:32;;;;;;;;;;;16.80;99.90;;;;;;5157143;27;19918;-42
2023/08/17 03:41:58;;;;;;;;;;;16.90;99.90;;;;;;5149176;27;19915;-43
2023/08/17 03:44:23;;;;;;;;;;;16.90;99.90;;;;;;5130116;27;19979;-43
2023/08/17 03:46:49;;;;;;;;;;;16.90;99.90;;;;;;5135735;27;19915;-42
2023/08/17 03:49:14;;;;;;;;;;;16.90;99.90;;;;;;5135646;27;19907;-42
2023/08/17 03:51:42;;;;;;;;;;;16.90;99.90;;;;;;5135370;27;20217;-43
2023/08/17 03:54:07;;;;;;;;;;;16.90;99.90;;;;;;5136232;27;19907;-43
2023/08/17 03:56:33;;;;;;;;;;;16.90;99.90;;;;;;5121265;27;19915;-45
2023/08/17 03:58:58;;;;;;;;;;;16.90;99.90;;;;;;5138887;27;19911;-42
2023/08/17 04:01:24;;;;;;;;;;;17.00;99.90;;;;;;5156651;27;19942;-43
2023/08/17 04:03:50;;;;;;;;;;;17.00;99.90;;;;;;5156718;27;20002;-45
2023/08/17 04:06:15;;;;;;;;;;;17.00;99.90;;;;;;5152699;27;19919;-41
2023/08/17 04:08:41;;;;;;;;;;;17.00;99.90;;;;;;5153573;27;20345;-43
2023/08/17 04:11:06;;;;;;;;;;;17.00;99.90;;;;;;5156593;27;19950;-42
2023/08/17 04:13:32;;;;;;;;;;;17.00;99.90;;;;;;5156367;27;19911;-42
2023/08/17 04:15:58;;;;;;;;;;;17.00;99.90;;;;;;5147651;27;19960;-43
2023/08/17 04:18:23;;;;;;;;;;;17.00;99.90;;;;;;5135581;27;19907;-43
2023/08/17 04:20:48;;;;;;;;;;;17.00;99.90;;;;;;5135686;27;19930;-42
2023/08/17 04:23:14;;;;;;;;;;;17.00;99.90;;;;;;5135680;27;19918;-43
2023/08/17 04:25:40;;;;;;;;;;;17.00;99.90;;;;;;5135494;27;19920;-41
2023/08/17 04:28:05;;;;;;;;;;;17.10;99.90;;;;;;5135224;27;20057;-44
2023/08/17 04:30:31;;;;;;;;;;;17.10;99.90;;;;;;5135377;27;19912;-46
2023/08/17 04:32:56;;;;;;;;;;;17.10;99.90;;;;;;5131345;27;19914;-42
2023/08/17 04:35:22;;;;;;;;;;;17.10;99.90;;;;;;5130933;27;19919;-42
2023/08/17 04:37:47;;;;;;;;;;;17.10;99.90;;;;;;5131850;27;19913;-44
2023/08/17 04:40:13;;;;;;;;;;;17.00;99.90;;;;;;5118653;27;19911;-44
2023/08/17 04:42:39;;;;;;;;;;;17.10;99.90;;;;;;5137923;27;19908;-45
2023/08/17 04:45:05;;;;;;;;;;;17.10;99.90;;;;;;5125199;27;19919;-43
2023/08/17 04:47:30;;;;;;;;;;;17.10;99.90;;;;;;5123470;27;19937;-42
2023/08/17 04:49:55;;;;;;;;;;;17.10;99.90;;;;;;5134344;27;20377;-43
2023/08/17 04:52:21;;;;;;;;;;;17.10;99.90;;;;;;5128978;27;19937;-41
2023/08/17 04:54:46;;;;;;;;;;;17.10;99.90;;;;;;5129830;27;20294;-44
2023/08/17 04:57:12;;;;;;;;;;;17.10;99.90;;;;;;5127757;27;20172;-43
2023/08/17 04:59:37;;;;;;;;;;;17.10;99.90;;;;;;5111138;27;20041;-42
2023/08/17 05:02:03;;;;;;;;;;;17.10;99.90;;;;;;5149846;27;19911;-43
2023/08/17 05:04:29;;;;;;;;;;;17.10;99.90;;;;;;5152601;27;20326;-42
2023/08/17 05:06:55;;;;;;;;;;;17.20;99.90;;;;;;5125550;27;19912;-44
2023/08/17 05:09:21;;;;;;;;;;;17.10;99.90;;;;;;5132559;27;19911;-42
2023/08/17 05:11:46;;;;;;;;;;;17.10;99.90;;;;;;5136871;27;19960;-43
2023/08/17 05:14:12;;;;;;;;;;;17.20;99.90;;;;;;5146657;27;19927;-45
2023/08/17 05:16:37;;;;;;;;;;;17.20;99.90;;;;;;5139703;27;20269;-43
2023/08/17 05:19:03;;;;;;;;;;;17.10;99.90;;;;;;5155235;27;19907;-43
2023/08/17 05:21:29;;;;;;;;;;;17.20;99.90;;;;;;5148006;27;20297;-43
2023/08/17 05:23:55;;;;;;;;;;;17.20;99.90;;;;;;5144238;27;20255;-43
2023/08/17 05:26:20;;;;;;;;;;;17.10;99.90;;;;;;5142248;27;19930;-43
2023/08/17 05:28:46;;;;;;;;;;;17.20;99.90;;;;;;5145377;27;19907;-43
2023/08/17 05:31:11;;;;;;;;;;;17.20;99.90;;;;;;5148039;27;19919;-42
2023/08/17 05:33:37;;;;;;;;;;;17.20;99.90;;;;;;5142466;27;19920;-45
2023/08/17 05:36:03;;;;;;;;;;;17.20;99.90;;;;;;5138270;27;20010;-42
2023/08/17 05:38:28;;;;;;;;;;;17.20;99.90;;;;;;5118650;27;20283;-43
2023/08/17 05:40:57;;;;;;;;;;;17.20;99.90;;;;;;5115140;27;19907;-42
2023/08/17 05:43:23;;;;;;;;;;;17.30;99.90;;;;;;5113914;28;19960;-42
2023/08/17 05:45:48;;;;;;;;;;;17.20;99.90;;;;;;5113519;28;20010;-41
2023/08/17 05:48:14;;;;;;;;;;;17.30;99.90;;;;;;5113571;28;19908;-43
2023/08/17 05:50:42;;;;;;;;;;;17.30;99.90;;;;;;5119796;27;20049;-41
2023/08/17 05:53:08;;;;;;;;;;;17.30;99.90;;;;;;5133940;27;19934;-43
2023/08/17 05:55:33;;;;;;;;;;;17.30;99.90;;;;;;5133853;27;20361;-43
2023/08/17 05:57:59;;;;;;;;;;;17.30;99.90;;;;;;5133873;27;19907;-41
2023/08/17 06:00:25;;;;;;;;;;;17.40;99.90;;;;;;5133864;27;19907;-41
2023/08/17 06:02:51;;;;;;;;;;;17.40;99.90;;;;;;5133949;27;19916;-42
2023/08/17 06:05:19;;;;;;;;;;;17.40;99.90;;;;;;5140137;27;20002;-43
2023/08/17 06:07:45;;;;;;;;;;;17.40;99.90;;;;;;5154451;27;19907;-46
2023/08/17 06:10:11;;;;;;;;;;;17.40;99.90;;;;;;5154022;27;20259;-42
2023/08/17 06:12:36;;;;;;;;;;;17.40;99.90;;;;;;5154350;27;19907;-41
2023/08/17 06:15:03;;;;;;;;;;;17.50;99.90;;;;;;5154488;27;19922;-43
2023/08/17 06:17:28;;;;;;;;;;;17.50;99.90;;;;;;5154355;27;19907;-41
2023/08/17 06:19:54;;;;;;;;;;;17.50;99.90;;;;;;5154394;27;19914;-43
2023/08/17 06:22:19;;;;;;;;;;;17.60;99.90;;;;;;5154308;27;19950;-43
2023/08/17 06:24:45;;;;;;;;;;;17.60;99.90;;;;;;5154389;27;19907;-41
2023/08/17 06:27:13;;;;;;;;;;;17.70;99.90;;;;;;5154290;27;19933;-43
2023/08/17 06:29:39;;;;;;;;;;;17.70;99.90;;;;;;5154287;27;20345;-42
2023/08/17 06:32:05;;;;;;;;;;;17.80;99.90;;;;;;5154296;27;19907;-43
2023/08/17 06:34:30;;;;;;;;;;;17.80;99.90;;;;;;5154167;27;20277;-43
2023/08/17 06:36:56;;;;;;;;;;;17.80;99.90;;;;;;5148591;27;20289;-42
2023/08/17 06:39:22;;;;;;;;;;;17.80;99.90;;;;;;5133273;27;19912;-41
2023/08/17 06:41:47;;;;;;;;;;;17.90;99.90;;;;;;5133421;28;20243;-43
2023/08/17 06:44:13;;;;;;;;;;;17.90;99.90;;;;;;5133158;28;19926;-42
2023/08/17 06:46:38;;;;;;;;;;;17.90;99.90;;;;;;5133371;28;19911;-42
2023/08/17 06:49:03;;;;;;;;;;;18.00;99.90;;;;;;5133400;28;20011;-43
2023/08/17 06:51:29;;;;;;;;;;;18.00;99.90;;;;;;5133337;28;19929;-46
2023/08/17 06:53:54;;;;;;;;;;;18.00;99.90;;;;;;5133436;28;20297;-43
2023/08/17 06:56:20;;;;;;;;;;;18.20;99.90;;;;;;5133222;28;19919;-43
2023/08/17 06:58:45;;;;;;;;;;;18.20;99.90;;;;;;5133365;28;19907;-43
2023/08/17 07:01:11;;;;;;;;;;;18.20;99.90;;;;;;5133317;28;19952;-42
2023/08/17 07:03:36;;;;;;;;;;;18.30;99.90;;;;;;5128347;27;19915;-45
2023/08/17 07:06:02;;;;;;;;;;;18.20;99.90;;;;;;5125558;27;19977;-42
2023/08/17 07:08:28;;;;;;;;;;;18.20;99.90;;;;;;5121529;27;20040;-44
2023/08/17 07:10:53;;;;;;;;;;;18.20;99.90;;;;;;5142993;27;19914;-42
2023/08/17 07:13:18;;;;;;;;;;;18.30;99.90;;;;;;5140579;27;19998;-41
2023/08/17 07:15:44;;;;;;;;;;;18.30;99.90;;;;;;5142301;27;19919;-43
2023/08/17 07:18:09;;;;;;;;;;;18.30;99.90;;;;;;5135215;27;20315;-41
2023/08/17 07:20:35;;;;;;;;;;;18.20;99.90;;;;;;5132979;27;19921;-42
2023/08/17 07:23:00;;;;;;;;;;;18.30;99.90;;;;;;5134344;27;19912;-42
2023/08/17 07:25:26;;;;;;;;;;;18.30;99.90;;;;;;5136654;27;20374;-42
2023/08/17 07:27:51;;;;;;;;;;;18.30;99.90;;;;;;5144100;27;19917;-42
2023/08/17 07:30:17;;;;;;;;;;;18.40;99.90;;;;;;5157162;27;20407;-42
2023/08/17 07:32:42;;;;;;;;;;;18.40;99.90;;;;;;5157093;27;19952;-42
2023/08/17 07:35:08;;;;;;;;;;;18.40;99.90;;;;;;5133325;27;19924;-43
2023/08/17 07:37:34;;;;;;;;;;;18.50;99.90;;;;;;5133215;27;19911;-43
2023/08/17 07:39:59;;;;;;;;;;;18.50;99.90;;;;;;5156739;27;19918;-44
2023/08/17 07:42:25;;;;;;;;;;;18.50;99.90;;;;;;5157009;27;19930;-43
2023/08/17 07:44:50;;;;;;;;;;;18.60;99.90;;;;;;5140148;27;19919;-42
2023/08/17 07:47:16;;;;;;;;;;;18.60;99.90;;;;;;5135131;27;20014;-45
2023/08/17 07:49:41;;;;;;;;;;;18.70;99.90;;;;;;5150766;27;19911;-42
2023/08/17 07:52:07;;;;;;;;;;;18.70;99.90;;;;;;5142694;27;19916;-42
2023/08/17 07:54:33;;;;;;;;;;;18.70;99.90;;;;;;5132325;27;19922;-44
2023/08/17 07:56:59;;;;;;;;;;;18.80;99.90;;;;;;5130404;27;19998;-42
2023/08/17 07:59:24;;;;;;;;;;;18.80;99.90;;;;;;5142024;27;19991;-44
2023/08/17 08:01:50;;;;;;;;;;;18.80;99.90;;;;;;5124636;27;19961;-43
2023/08/17 08:04:15;;;;;;;;;;;18.80;99.90;;;;;;5123961;27;20381;-42
2023/08/17 08:06:41;;;;;;;;;;;18.90;99.90;;;;;;5125625;27;19986;-43
2023/08/17 08:09:07;;;;;;;;;;;18.80;99.90;;;;;;5141400;27;19998;-41
2023/08/17 08:11:32;;;;;;;;;;;18.80;99.90;;;;;;5137853;27;19915;-43
2023/08/17 08:13:58;;;;;;;;;;;18.80;99.90;;;;;;5146984;27;20378;-44
2023/08/17 08:16:23;;;;;;;;;;;18.80;99.90;;;;;;5141533;27;19923;-45
2023/08/17 08:18:49;;;;;;;;;;;18.80;99.90;;;;;;5141302;27;19926;-42
2023/08/17 08:21:14;;;;;;;;;;;18.90;99.90;;;;;;5138939;27;19915;-44
2023/08/17 08:23:40;;;;;;;;;;;18.90;99.90;;;;;;5135549;27;20362;-44
2023/08/17 08:26:05;;;;;;;;;;;19.00;99.90;;;;;;5133387;27;19911;-44
2023/08/17 08:28:31;;;;;;;;;;;19.00;99.90;;;;;;5136744;27;19922;-47
2023/08/17 08:31:01;;;;;;;;;;;19.10;99.90;;;;;;5130443;27;19912;-44
2023/08/17 08:33:26;;;;;;;;;;;19.10;99.90;;;;;;5135501;27;19911;-42
2023/08/17 08:35:52;;;;;;;;;;;19.10;99.90;;;;;;5138700;27;19919;-43
2023/08/17 08:38:18;;;;;;;;;;;19.20;99.90;;;;;;5135813;27;19908;-43
2023/08/17 08:40:43;;;;;;;;;;;19.30;99.90;;;;;;5135314;27;19907;-43
2023/08/17 08:43:09;;;;;;;;;;;19.30;99.90;;;;;;5129180;27;19969;-42
2023/08/17 08:45:35;;;;;;;;;;;19.30;99.90;;;;;;5121610;27;20362;-43
2023/08/17 08:48:01;;;;;;;;;;;19.40;99.90;;;;;;5135477;27;19922;-42
2023/08/17 08:50:31;;;;;;;;;;;19.40;99.90;;;;;;5147916;27;19911;-44
2023/08/17 08:52:56;;;;;;;;;;;19.50;99.90;;;;;;5139247;27;19911;-43
2023/08/17 08:55:23;;;;;;;;;;;19.50;99.90;;;;;;5133793;27;19919;-45
2023/08/17 08:57:49;;;;;;;;;;;19.60;99.90;;;;;;5135148;27;20266;-44
2023/08/17 09:00:14;;;;;;;;;;;19.60;99.90;;;;;;5133461;27;19911;-41
2023/08/17 09:02:41;;;;;;;;;;;19.60;99.90;;;;;;5134362;27;19919;-44
2023/08/17 09:05:08;;;;;;;;;;;19.60;99.90;;;;;;5145304;27;19912;-42
2023/08/17 09:07:34;;;;;;;;;;;19.60;99.90;;;;;;5132358;27;19911;-44
2023/08/17 09:09:59;;;;;;;;;;;19.60;99.90;;;;;;5104289;27;19964;-42
2023/08/17 09:12:25;;;;;;;;;;;19.50;99.90;;;;;;5134897;27;19908;-47
2023/08/17 09:14:50;;;;;;;;;;;19.60;99.90;;;;;;5136456;27;19927;-42
2023/08/17 09:17:26;;;;;;;;;;;19.50;99.90;;;;;;5124778;27;19918;-42
2023/08/17 09:19:52;;;;;;;;;;;19.60;99.90;;;;;;5135361;27;19918;-43
2023/08/17 09:22:24;;;;;;;;;;;19.60;99.90;;;;;;5133270;27;19911;-44
2023/08/17 09:24:50;;;;;;;;;;;19.60;99.90;;;;;;5156053;27;19907;-44
2023/08/17 09:27:16;;;;;;;;;;;19.60;99.90;;;;;;5155761;27;20401;-44
2023/08/17 09:29:45;;;;;;;;;;;19.70;99.90;;;;;;5155795;27;19957;-43
2023/08/17 09:32:11;;;;;;;;;;;19.70;99.90;;;;;;5148494;27;19923;-44
2023/08/17 09:34:36;;;;;;;;;;;19.80;99.90;;;;;;5115686;27;19907;-44
2023/08/17 09:37:05;;;;;;;;;;;19.80;99.90;;;;;;5114201;28;20346;-43
2023/08/17 09:39:31;;;;;;;;;;;19.80;99.90;;;;;;5114051;28;19954;-44
2023/08/17 09:41:57;;;;;;;;;;;19.90;99.90;;;;;;5122279;27;19962;-43
2023/08/17 09:44:22;;;;;;;;;;;19.90;99.90;;;;;;5148357;27;20014;-43
2023/08/17 09:46:48;;;;;;;;;;;20.00;99.90;;;;;;5132441;27;19947;-43
2023/08/17 09:49:14;;;;;;;;;;;20.10;99.90;;;;;;5133923;27;20353;-44
2023/08/17 09:51:43;;;;;;;;;;;20.30;99.90;;;;;;5132888;27;19908;-43
2023/08/17 09:54:17;;;;;;;;;;;20.40;99.90;;;;;;5153581;27;19908;-44
2023/08/17 09:56:43;;;;;;;;;;;20.50;99.90;;;;;;5153186;27;19922;-42
2023/08/17 09:59:09;;;;;;;;;;;20.50;99.90;;;;;;5151946;27;19907;-43
2023/08/17 10:01:34;;;;;;;;;;;20.60;99.90;;;;;;5125660;27;19915;-44
2023/08/17 10:04:01;;;;;;;;;;;20.60;99.90;;;;;;5132346;27;19913;-44
2023/08/17 10:06:28;;;;;;;;;;;20.60;99.90;;;;;;5132174;27;19915;-45
2023/08/17 10:08:56;;;;;;;;;;;20.60;99.90;;;;;;5134266;28;20407;-44
2023/08/17 10:11:22;;;;;;;;;;;20.50;99.90;;;;;;5117077;28;19968;-44
2023/08/17 10:13:52;;;;;;;;;;;20.50;99.90;;;;;;5128466;27;20018;-42
2023/08/17 10:16:28;;;;;;;;;;;20.40;99.90;;;;;;5112117;28;19916;-44
2023/08/17 10:19:17;;;;;;;;;;;20.40;99.90;;;;;;5126019;28;19939;-44
2023/08/17 10:22:03;;;;;;;;;;;20.30;99.90;;;;;;5133306;27;19907;-44
2023/08/17 10:24:30;;;;;;;;;;;20.30;99.90;;;;;;5152106;27;19915;-43
2023/08/17 10:26:56;;;;;;;;;;;20.20;99.90;;;;;;5117420;27;19908;-43
2023/08/17 10:29:23;;;;;;;;;;;20.20;99.90;;;;;;5112680;28;19919;-44
2023/08/17 10:31:48;;;;;;;;;;;20.20;99.90;;;;;;5112072;27;19955;-43
2023/08/17 10:34:15;;;;;;;;;;;20.10;99.90;;;;;;5113188;28;19954;-43
2023/08/17 10:36:41;;;;;;;;;;;20.10;99.90;;;;;;5113173;28;19923;-44
2023/08/17 10:39:23;;;;;;;;;;;20.10;99.90;;;;;;5113432;28;19908;-43
2023/08/17 10:41:49;;;;;;;;;;;20.10;99.90;;;;;;5148593;27;19911;-43
2023/08/17 10:44:16;;;;;;;;;;;20.10;99.90;;;;;;5154000;27;19919;-44
2023/08/17 10:46:43;;;;;;;;;;;20.20;99.90;;;;;;5138631;27;19915;-44
2023/08/17 10:49:24;;;;;;;;;;;20.30;99.90;;;;;;5138727;27;19911;-44
2023/08/17 10:52:08;;;;;;;;;;;20.50;99.90;;;;;;5145724;27;19919;-44
2023/08/17 10:54:38;;;;;;;;;;;20.60;99.90;;;;;;5130333;27;19916;-43
2023/08/17 10:57:22;;;;;;;;;;;20.70;99.90;;;;;;5146946;27;19917;-45
2023/08/17 11:00:05;;;;;;;;;;;20.70;99.90;;;;;;5151397;27;19911;-42
2023/08/17 11:02:33;;;;;;;;;;;20.70;99.90;;;;;;5129380;27;19943;-43
2023/08/17 11:05:00;;;;;;;;;;;20.70;99.90;;;;;;5149057;27;19947;-42
2023/08/17 11:07:28;;;;;;;;;;;20.60;99.90;;;;;;5154870;27;19907;-43
2023/08/17 11:09:53;;;;;;;;;;;20.50;99.90;;;;;;5142318;27;19954;-41
2023/08/17 11:12:26;;;;;;;;;;;20.40;99.90;;;;;;5145568;27;19954;-43
2023/08/17 11:14:51;;;;;;;;;;;20.50;99.90;;;;;;5145274;27;19919;-43
2023/08/17 11:17:19;;;;;;;;;;;20.50;99.90;;;;;;5140887;27;20671;-43
2023/08/17 11:19:45;;;;;;;;;;;20.50;99.90;;;;;;5135314;27;20370;-44
2023/08/17 11:22:11;;;;;;;;;;;20.60;99.90;;;;;;5136411;27;19955;-43
2023/08/17 11:24:39;;;;;;;;;;;20.50;99.90;;;;;;5136530;27;19908;-43
2023/08/17 11:27:05;;;;;;;;;;;20.50;99.90;;;;;;5148865;27;19918;-43
2023/08/17 11:29:31;;;;;;;;;;;20.50;99.90;;;;;;5147554;27;19911;-44
2023/08/17 11:31:57;;;;;;;;;;;20.60;99.90;;;;;;5136643;27;19907;-43
2023/08/17 11:34:23;;;;;;;;;;;20.60;99.90;;;;;;5136344;27;20331;-44
2023/08/17 11:36:48;;;;;;;;;;;20.70;99.90;;;;;;5136264;27;19915;-41
2023/08/17 11:39:14;;;;;;;;;;;20.80;99.90;;;;;;5156888;27;20269;-44
2023/08/17 11:41:40;;;;;;;;;;;20.90;99.90;;;;;;5137930;27;19919;-44
2023/08/17 11:44:06;;;;;;;;;;;21.10;99.90;;;;;;5135962;27;19923;-42
2023/08/17 11:46:32;;;;;;;;;;;21.30;99.90;;;;;;5135685;27;20388;-42
2023/08/17 11:49:00;;;;;;;;;;;21.30;99.90;;;;;;5102412;27;20394;-47
2023/08/17 11:51:30;;;;;;;;;;;21.40;99.90;;;;;;5126913;27;19964;-44
2023/08/17 11:53:58;;;;;;;;;;;21.30;99.90;;;;;;5135893;27;20354;-44
2023/08/17 11:56:24;;;;;;;;;;;21.40;99.90;;;;;;5135034;27;19971;-45
2023/08/17 11:58:49;;;;;;;;;;;21.50;99.90;;;;;;5135713;27;19949;-45
2023/08/17 12:01:18;;;;;;;;;;;21.70;99.90;;;;;;5136180;27;20281;-44
2023/08/17 12:03:43;;;;;;;;;;;21.70;99.90;;;;;;5135662;27;19939;-43
2023/08/17 12:06:09;;;;;;;;;;;21.80;99.90;;;;;;5135886;27;19958;-43
2023/08/17 12:08:35;;;;;;;;;;;21.70;99.90;;;;;;5115273;27;20281;-43
2023/08/17 12:11:00;;;;;;;;;;;21.70;99.90;;;;;;5094561;28;19934;-42
2023/08/17 12:13:30;;;;;;;;;;;21.60;99.90;;;;;;5094823;28;19930;-43
2023/08/17 12:15:57;;;;;;;;;;;21.50;99.90;;;;;;5094621;28;20388;-45
2023/08/17 12:18:22;;;;;;;;;;;21.40;99.90;;;;;;5094618;28;19963;-43
2023/08/17 12:20:52;;;;;;;;;;;21.40;99.90;;;;;;5095153;28;19951;-44
2023/08/17 12:23:17;;;;;;;;;;;21.30;99.90;;;;;;5094176;28;19908;-45
2023/08/17 12:25:43;;;;;;;;;;;21.20;99.90;;;;;;5094485;28;19919;-45
2023/08/17 12:28:12;;;;;;;;;;;21.20;99.90;;;;;;5094560;28;19937;-46
2023/08/17 12:30:37;;;;;;;;;;;21.20;99.90;;;;;;5095040;28;20002;-43
2023/08/17 12:33:03;;;;;;;;;;;21.20;99.90;;;;;;5095272;28;20342;-42
2023/08/17 12:35:29;;;;;;;;;;;21.10;99.90;;;;;;5094678;28;19965;-44
2023/08/17 12:37:55;;;;;;;;;;;21.10;99.90;;;;;;5094534;28;19912;-43
2023/08/17 12:40:21;;;;;;;;;;;21.00;99.90;;;;;;5101668;28;19911;-43
2023/08/17 12:42:47;;;;;;;;;;;20.90;99.90;;;;;;5114824;28;19965;-44
2023/08/17 12:45:13;;;;;;;;;;;20.80;99.90;;;;;;5130148;27;20023;-44
2023/08/17 12:47:39;;;;;;;;;;;20.70;99.90;;;;;;5134770;27;20362;-43
2023/08/17 12:50:05;;;;;;;;;;;20.70;99.90;;;;;;5135147;27;19953;-44
2023/08/17 12:52:30;;;;;;;;;;;20.60;99.90;;;;;;5133130;27;19907;-42
2023/08/17 12:54:56;;;;;;;;;;;20.60;99.90;;;;;;5133781;27;19941;-45
2023/08/17 12:57:21;;;;;;;;;;;20.70;99.90;;;;;;5135137;27;20333;-46
2023/08/17 12:59:47;;;;;;;;;;;20.70;99.90;;;;;;5135229;27;19908;-43
2023/08/17 13:02:13;;;;;;;;;;;20.70;99.90;;;;;;5131380;27;20323;-42
2023/08/17 13:04:39;;;;;;;;;;;20.80;99.90;;;;;;5132632;27;20203;-44
2023/08/17 13:07:04;;;;;;;;;;;20.80;99.90;;;;;;5127494;27;19911;-44
2023/08/17 13:09:30;;;;;;;;;;;20.80;99.90;;;;;;5119259;27;20473;-45
2023/08/17 13:11:55;;;;;;;;;;;20.90;99.90;;;;;;5124870;27;20081;-44
2023/08/17 13:14:22;;;;;;;;;;;20.90;99.90;;;;;;5111637;28;19911;-46
2023/08/17 13:16:49;;;;;;;;;;;20.90;99.90;;;;;;5111736;28;19919;-45
2023/08/17 13:19:14;;;;;;;;;;;20.90;99.90;;;;;;5120590;27;19994;-43
2023/08/17 13:21:40;;;;;;;;;;;20.90;99.90;;;;;;5134135;27;20392;-43
2023/08/17 13:24:05;;;;;;;;;;;20.90;99.90;;;;;;5134041;27;19915;-43
2023/08/17 13:26:31;;;;;;;;;;;20.90;99.90;;;;;;5128977;27;19915;-44
2023/08/17 13:28:57;;;;;;;;;;;20.90;99.90;;;;;;5121824;27;19908;-43
2023/08/17 13:31:23;;;;;;;;;;;20.90;99.90;;;;;;5113095;28;19914;-44
2023/08/17 13:33:49;;;;;;;;;;;21.00;99.90;;;;;;5113250;28;20024;-43
2023/08/17 13:36:14;;;;;;;;;;;21.00;99.90;;;;;;5127269;27;19919;-43
2023/08/17 13:38:40;;;;;;;;;;;21.00;99.90;;;;;;5124087;27;20434;-45
2023/08/17 13:41:06;;;;;;;;;;;21.00;99.90;;;;;;5114248;28;19908;-43
2023/08/17 13:43:31;;;;;;;;;;;21.00;99.90;;;;;;5137375;27;20269;-42
2023/08/17 13:45:57;;;;;;;;;;;21.00;99.90;;;;;;5125740;27;19994;-44
2023/08/17 13:48:23;;;;;;;;;;;20.90;99.90;;;;;;5126626;27;19911;-43
2023/08/17 13:50:48;;;;;;;;;;;20.80;99.90;;;;;;5134169;27;19955;-45
2023/08/17 13:53:14;;;;;;;;;;;20.80;99.90;;;;;;5128745;27;19919;-44
2023/08/17 13:55:39;;;;;;;;;;;20.80;99.90;;;;;;5112865;28;20010;-43
2023/08/17 13:58:05;;;;;;;;;;;20.90;99.90;;;;;;5122735;27;19911;-44
2023/08/17 14:00:30;;;;;;;;;;;20.90;99.90;;;;;;5131505;27;19935;-42
2023/08/17 14:02:56;;;;;;;;;;;20.90;99.90;;;;;;5123718;27;20392;-45
2023/08/17 14:05:21;;;;;;;;;;;20.90;99.90;;;;;;5117148;27;20002;-44
2023/08/17 14:07:47;;;;;;;;;;;20.90;99.90;;;;;;5112702;28;19908;-43
2023/08/17 14:10:13;;;;;;;;;;;20.90;99.90;;;;;;5112955;28;20423;-43
2023/08/17 14:12:39;;;;;;;;;;;20.80;99.90;;;;;;5117655;28;19919;-44